Time;durP1;ratioP1;P1;durP2;ratioP2;P2;SDS_P1;SDS_P2;PMS_P1;PMS_P2;Temp;Humidity;BMP_temperature;BMP_pressure;BME280_temperature;BME280_humidity;BME280_pressure;Samples;Min_cycle;Max_cycle;Signal;HPM_P1;HPM_P2
2023/04/10 00:02:12;;;;;;;;;;;11.50;65.80;;;;;;5071662;28;19908;-29
2023/04/10 00:04:37;;;;;;;;;;;11.50;65.80;;;;;;5071581;28;20019;-32
2023/04/10 00:07:03;;;;;;;;;;;11.50;65.80;;;;;;5071500;28;19958;-32
2023/04/10 00:09:29;;;;;;;;;;;11.50;65.80;;;;;;5071458;28;19959;-35
2023/04/10 00:11:55;;;;;;;;;;;11.50;65.90;;;;;;5071462;28;19930;-30
2023/04/10 00:14:23;;;;;;;;;;;11.50;65.90;;;;;;5071471;28;19912;-31
2023/04/10 00:16:49;;;;;;;;;;;11.50;65.90;;;;;;5071607;28;19908;-30
2023/04/10 00:19:14;;;;;;;;;;;11.40;65.80;;;;;;5071444;28;19915;-29
2023/04/10 00:21:40;;;;;;;;;;;11.40;65.80;;;;;;5071664;28;20277;-29
2023/04/10 00:24:05;;;;;;;;;;;11.40;65.90;;;;;;5071596;28;19981;-32
2023/04/10 00:26:31;;;;;;;;;;;11.40;66.00;;;;;;5069959;28;19916;-33
2023/04/10 00:28:56;;;;;;;;;;;11.40;66.00;;;;;;5071435;28;19909;-32
2023/04/10 00:31:22;;;;;;;;;;;11.40;66.10;;;;;;5071494;28;19915;-30
2023/04/10 00:33:47;;;;;;;;;;;11.40;66.10;;;;;;5071385;28;20279;-29
2023/04/10 00:36:13;;;;;;;;;;;11.30;66.10;;;;;;5071398;28;19918;-29
2023/04/10 00:38:38;;;;;;;;;;;11.30;66.10;;;;;;5071392;28;19908;-29
2023/04/10 00:41:04;;;;;;;;;;;11.30;66.20;;;;;;5071305;28;20302;-30
2023/04/10 00:43:30;;;;;;;;;;;11.30;66.20;;;;;;5071285;28;19915;-29
2023/04/10 00:45:55;;;;;;;;;;;11.30;66.30;;;;;;5071248;28;19908;-28
2023/04/10 00:48:21;;;;;;;;;;;11.20;66.30;;;;;;5071249;28;19909;-31
2023/04/10 00:50:46;;;;;;;;;;;11.20;66.30;;;;;;5071287;28;19940;-30
2023/04/10 00:53:12;;;;;;;;;;;11.20;66.30;;;;;;5071481;28;19908;-30
2023/04/10 00:55:37;;;;;;;;;;;11.20;66.40;;;;;;5071447;28;19973;-30
2023/04/10 00:58:03;;;;;;;;;;;11.10;66.30;;;;;;5071187;28;19908;-31
2023/04/10 01:00:28;;;;;;;;;;;11.10;66.40;;;;;;5071147;28;19909;-29
2023/04/10 01:02:54;;;;;;;;;;;11.10;66.50;;;;;;5071206;28;19909;-33
2023/04/10 01:05:20;;;;;;;;;;;11.00;66.50;;;;;;5071074;28;19912;-32
2023/04/10 01:08:01;;;;;;;;;;;11.10;66.60;;;;;;5071329;28;19916;-29
2023/04/10 01:10:34;;;;;;;;;;;11.00;66.50;;;;;;5071265;28;20485;-40
2023/04/10 01:13:05;;;;;;;;;;;11.00;66.60;;;;;;5071173;28;19908;-33
2023/04/10 01:15:36;;;;;;;;;;;11.00;66.60;;;;;;5070919;28;19964;-33
2023/04/10 01:18:07;;;;;;;;;;;11.00;66.60;;;;;;5070866;28;19951;-33
2023/04/10 01:20:35;;;;;;;;;;;10.90;66.60;;;;;;5070970;28;20279;-29
2023/04/10 01:23:15;;;;;;;;;;;10.90;66.70;;;;;;5071192;28;20299;-32
2023/04/10 01:25:56;;;;;;;;;;;10.90;66.70;;;;;;5073441;28;19951;-32
2023/04/10 01:28:36;;;;;;;;;;;10.90;66.70;;;;;;5074319;28;19921;-29
2023/04/10 01:31:02;;;;;;;;;;;10.90;66.80;;;;;;5074409;28;20360;-30
2023/04/10 01:33:49;;;;;;;;;;;10.90;67.50;;;;;;5074403;28;19908;-29
2023/04/10 01:36:21;;;;;;;;;;;10.90;66.90;;;;;;5074211;28;19923;-29
2023/04/10 01:38:47;;;;;;;;;;;10.90;66.90;;;;;;5074241;28;19908;-30
2023/04/10 01:41:13;;;;;;;;;;;10.80;66.80;;;;;;5074214;28;19995;-32
2023/04/10 01:43:40;;;;;;;;;;;10.80;66.90;;;;;;5074246;28;19908;-33
2023/04/10 01:46:06;;;;;;;;;;;10.80;66.90;;;;;;5074510;28;19908;-35
2023/04/10 01:48:31;;;;;;;;;;;10.80;66.90;;;;;;5074093;28;19908;-30
2023/04/10 01:50:58;;;;;;;;;;;10.80;66.90;;;;;;5074075;28;19908;-30
2023/04/10 01:53:24;;;;;;;;;;;10.80;66.90;;;;;;5073956;28;20002;-29
2023/04/10 01:55:50;;;;;;;;;;;10.80;66.90;;;;;;5073939;28;20015;-43
2023/04/10 01:58:16;;;;;;;;;;;10.80;67.00;;;;;;5074191;28;20280;-31
2023/04/10 02:00:42;;;;;;;;;;;10.80;67.10;;;;;;5073807;28;19919;-29
2023/04/10 02:03:08;;;;;;;;;;;10.80;67.10;;;;;;5074068;28;19908;-29
2023/04/10 02:05:45;;;;;;;;;;;10.80;67.10;;;;;;5073764;28;20284;-31
2023/04/10 02:08:12;;;;;;;;;;;10.70;67.00;;;;;;5073716;28;20352;-32
2023/04/10 02:10:47;;;;;;;;;;;10.80;67.10;;;;;;5073401;28;20095;-29
2023/04/10 02:13:14;;;;;;;;;;;10.80;67.10;;;;;;5073618;28;20424;-30
2023/04/10 02:15:41;;;;;;;;;;;10.80;67.00;;;;;;5073855;28;19912;-29
2023/04/10 02:18:08;;;;;;;;;;;10.80;67.00;;;;;;5073534;28;19909;-29
2023/04/10 02:20:34;;;;;;;;;;;10.80;67.00;;;;;;5073577;28;19908;-37
2023/04/10 02:23:02;;;;;;;;;;;10.80;67.00;;;;;;5073467;28;19908;-29
2023/04/10 02:25:32;;;;;;;;;;;10.80;67.10;;;;;;5073467;28;20285;-29
2023/04/10 02:27:57;;;;;;;;;;;10.80;67.10;;;;;;5073284;28;19921;-29
2023/04/10 02:30:23;;;;;;;;;;;10.80;67.10;;;;;;5073281;28;19909;-32
2023/04/10 02:32:49;;;;;;;;;;;10.70;67.20;;;;;;5073618;28;19909;-35
2023/04/10 02:35:14;;;;;;;;;;;10.70;67.30;;;;;;5072817;28;19974;-30
2023/04/10 02:37:41;;;;;;;;;;;10.70;67.30;;;;;;5072282;28;19956;-29
2023/04/10 02:40:07;;;;;;;;;;;10.70;67.40;;;;;;5073409;28;19908;-39
2023/04/10 02:42:32;;;;;;;;;;;10.60;67.40;;;;;;5071629;28;19919;-30
2023/04/10 02:44:58;;;;;;;;;;;10.60;67.50;;;;;;5073116;28;19919;-34
2023/04/10 02:47:23;;;;;;;;;;;10.60;67.50;;;;;;5072891;28;19908;-32
2023/04/10 02:49:49;;;;;;;;;;;10.60;67.50;;;;;;5072850;28;19909;-31
2023/04/10 02:52:16;;;;;;;;;;;10.50;67.50;;;;;;5072899;28;19934;-31
2023/04/10 02:54:41;;;;;;;;;;;10.50;67.60;;;;;;5072841;28;19913;-28
2023/04/10 02:57:07;;;;;;;;;;;10.50;67.60;;;;;;5072721;28;19915;-29
2023/04/10 02:59:32;;;;;;;;;;;10.40;67.60;;;;;;5073042;28;19982;-28
2023/04/10 03:01:58;;;;;;;;;;;10.40;67.70;;;;;;5072935;28;19923;-31
2023/04/10 03:04:23;;;;;;;;;;;10.40;67.70;;;;;;5072612;28;19909;-32
2023/04/10 03:06:49;;;;;;;;;;;10.40;67.80;;;;;;5072586;28;19915;-28
2023/04/10 03:09:14;;;;;;;;;;;10.30;67.80;;;;;;5072351;28;19908;-28
2023/04/10 03:11:40;;;;;;;;;;;10.30;67.80;;;;;;5072653;28;19913;-28
2023/04/10 03:14:08;;;;;;;;;;;10.30;67.90;;;;;;5072300;28;19966;-30
2023/04/10 03:16:34;;;;;;;;;;;10.30;67.90;;;;;;5072647;28;20475;-30
2023/04/10 03:19:00;;;;;;;;;;;10.30;68.00;;;;;;5072381;28;19972;-34
2023/04/10 03:21:26;;;;;;;;;;;10.30;68.00;;;;;;5072507;28;19924;-33
2023/04/10 03:23:51;;;;;;;;;;;10.30;68.00;;;;;;5072588;28;20411;-47
2023/04/10 03:26:17;;;;;;;;;;;10.20;68.00;;;;;;5072145;28;20012;-34
2023/04/10 03:28:42;;;;;;;;;;;10.20;68.10;;;;;;5072138;28;20049;-31
2023/04/10 03:31:09;;;;;;;;;;;10.10;68.10;;;;;;5072474;28;20368;-28
2023/04/10 03:33:35;;;;;;;;;;;10.20;68.20;;;;;;5072013;28;19987;-32
2023/04/10 03:36:00;;;;;;;;;;;10.10;68.20;;;;;;5072135;28;20004;-32
2023/04/10 03:38:26;;;;;;;;;;;10.10;68.30;;;;;;5071947;28;19951;-30
2023/04/10 03:40:52;;;;;;;;;;;10.10;68.30;;;;;;5072210;28;19908;-29
2023/04/10 03:43:18;;;;;;;;;;;10.00;68.30;;;;;;5072132;28;19909;-31
2023/04/10 03:45:43;;;;;;;;;;;10.00;68.40;;;;;;5071870;28;20340;-31
2023/04/10 03:48:09;;;;;;;;;;;10.00;68.50;;;;;;5071862;28;19958;-28
2023/04/10 03:50:34;;;;;;;;;;;9.90;68.50;;;;;;5072019;28;19966;-31
2023/04/10 03:53:00;;;;;;;;;;;9.90;68.80;;;;;;5071759;28;19912;-35
2023/04/10 03:55:26;;;;;;;;;;;9.80;68.60;;;;;;5071930;28;20028;-33
2023/04/10 03:57:51;;;;;;;;;;;9.80;68.70;;;;;;5071744;28;19995;-31
2023/04/10 04:00:17;;;;;;;;;;;9.80;68.70;;;;;;5071589;28;19909;-35
2023/04/10 04:02:43;;;;;;;;;;;9.70;68.70;;;;;;5072028;28;20280;-42
2023/04/10 04:05:08;;;;;;;;;;;9.80;68.80;;;;;;5071800;28;19916;-34
2023/04/10 04:07:34;;;;;;;;;;;9.70;68.80;;;;;;5071772;28;20291;-30
2023/04/10 04:10:00;;;;;;;;;;;9.70;68.80;;;;;;5071455;28;19999;-29
2023/04/10 04:12:25;;;;;;;;;;;9.70;68.90;;;;;;5071629;28;19908;-31
2023/04/10 04:14:51;;;;;;;;;;;9.70;68.90;;;;;;5071470;28;19934;-29
2023/04/10 04:17:16;;;;;;;;;;;9.70;69.50;;;;;;5071589;28;19908;-30
2023/04/10 04:19:42;;;;;;;;;;;9.70;68.90;;;;;;5071516;28;20387;-29
2023/04/10 04:22:07;;;;;;;;;;;9.70;68.90;;;;;;5071415;28;19909;-36
2023/04/10 04:24:33;;;;;;;;;;;9.70;68.90;;;;;;5071784;28;19908;-33
2023/04/10 04:26:58;;;;;;;;;;;9.70;68.90;;;;;;5071214;28;20360;-30
2023/04/10 04:29:24;;;;;;;;;;;9.60;68.90;;;;;;5071402;28;19909;-32
2023/04/10 04:31:49;;;;;;;;;;;9.60;68.90;;;;;;5071609;28;20279;-30
2023/04/10 04:34:15;;;;;;;;;;;9.60;68.90;;;;;;5071291;28;19962;-32
2023/04/10 04:36:41;;;;;;;;;;;9.60;69.00;;;;;;5071362;28;19967;-30
2023/04/10 04:39:06;;;;;;;;;;;9.60;69.00;;;;;;5071500;28;20012;-38
2023/04/10 04:41:32;;;;;;;;;;;9.60;69.00;;;;;;5069928;28;20265;-40
2023/04/10 04:43:58;;;;;;;;;;;9.60;69.60;;;;;;5071515;28;19954;-42
2023/04/10 04:46:23;;;;;;;;;;;9.60;69.00;;;;;;5071563;28;19913;-34
2023/04/10 04:48:49;;;;;;;;;;;9.60;69.00;;;;;;5071263;28;19920;-32
2023/04/10 04:51:14;;;;;;;;;;;9.60;69.00;;;;;;5071773;28;20376;-30
2023/04/10 04:53:40;;;;;;;;;;;9.60;69.10;;;;;;5071247;28;19920;-30
2023/04/10 04:56:05;;;;;;;;;;;9.60;69.10;;;;;;5071548;28;19909;-29
2023/04/10 04:58:31;;;;;;;;;;;9.60;69.10;;;;;;5071112;28;20327;-32
2023/04/10 05:00:57;;;;;;;;;;;9.60;69.10;;;;;;5074583;28;19938;-29
2023/04/10 05:03:22;;;;;;;;;;;9.60;69.10;;;;;;5075059;28;20348;-28
2023/04/10 05:05:48;;;;;;;;;;;9.60;69.10;;;;;;5074813;28;19999;-29
2023/04/10 05:08:13;;;;;;;;;;;9.60;69.10;;;;;;5074837;28;20375;-31
2023/04/10 05:10:39;;;;;;;;;;;9.60;69.10;;;;;;5074788;28;19915;-29
2023/04/10 05:13:04;;;;;;;;;;;9.60;69.10;;;;;;5075009;28;19913;-30
2023/04/10 05:15:30;;;;;;;;;;;9.60;69.10;;;;;;5074881;28;19913;-29
2023/04/10 05:17:55;;;;;;;;;;;9.60;69.10;;;;;;5074900;28;20479;-32
2023/04/10 05:20:21;;;;;;;;;;;9.60;69.10;;;;;;5074634;28;19957;-31
2023/04/10 05:22:47;;;;;;;;;;;9.70;69.10;;;;;;5074530;28;19957;-30
2023/04/10 05:25:12;;;;;;;;;;;9.70;69.10;;;;;;5074624;28;19916;-34
2023/04/10 05:27:38;;;;;;;;;;;9.70;69.10;;;;;;5074452;28;20376;-31
2023/04/10 05:30:03;;;;;;;;;;;9.70;69.00;;;;;;5074465;28;19908;-31
2023/04/10 05:32:30;;;;;;;;;;;9.70;69.00;;;;;;5074098;28;20396;-31
2023/04/10 05:34:56;;;;;;;;;;;9.80;69.00;;;;;;5074244;28;19970;-30
2023/04/10 05:37:21;;;;;;;;;;;9.80;69.00;;;;;;5074371;28;19947;-30
2023/04/10 05:39:47;;;;;;;;;;;9.80;68.90;;;;;;5074271;28;19958;-32
2023/04/10 05:42:12;;;;;;;;;;;9.80;68.80;;;;;;5074275;28;20544;-30
2023/04/10 05:44:38;;;;;;;;;;;9.90;68.80;;;;;;5074145;28;19909;-30
2023/04/10 05:47:04;;;;;;;;;;;9.90;68.80;;;;;;5073979;28;19951;-30
2023/04/10 05:49:29;;;;;;;;;;;9.90;68.70;;;;;;5074339;28;19931;-30
2023/04/10 05:51:55;;;;;;;;;;;10.00;68.70;;;;;;5073930;28;19944;-32
2023/04/10 05:54:20;;;;;;;;;;;10.00;68.70;;;;;;5073995;28;20265;-29
2023/04/10 05:56:46;;;;;;;;;;;10.10;68.70;;;;;;5074287;28;20334;-41
2023/04/10 05:59:12;;;;;;;;;;;10.10;68.60;;;;;;5073870;28;19909;-30
2023/04/10 06:01:38;;;;;;;;;;;10.20;68.50;;;;;;5074227;28;19931;-41
2023/04/10 06:04:03;;;;;;;;;;;10.20;68.50;;;;;;5073843;28;19915;-31
2023/04/10 06:06:29;;;;;;;;;;;10.30;68.50;;;;;;5073938;28;19908;-29
2023/04/10 06:08:55;;;;;;;;;;;10.30;68.40;;;;;;5073607;28;20007;-37
2023/04/10 06:11:21;;;;;;;;;;;10.30;68.30;;;;;;5073439;28;20013;-30
2023/04/10 06:13:46;;;;;;;;;;;10.40;68.30;;;;;;5073492;28;19919;-41
2023/04/10 06:16:14;;;;;;;;;;;10.40;68.30;;;;;;5073687;28;19908;-30
2023/04/10 06:18:40;;;;;;;;;;;10.50;68.30;;;;;;5073875;28;20279;-30
2023/04/10 06:21:05;;;;;;;;;;;10.50;68.20;;;;;;5073844;28;19909;-30
2023/04/10 06:23:31;;;;;;;;;;;10.60;68.10;;;;;;5073734;28;19951;-28
2023/04/10 06:25:57;;;;;;;;;;;10.60;68.00;;;;;;5073468;28;19931;-29
2023/04/10 06:28:22;;;;;;;;;;;10.70;67.90;;;;;;5073393;28;20143;-32
2023/04/10 06:30:48;;;;;;;;;;;10.70;67.90;;;;;;5073336;28;19916;-32
2023/04/10 06:33:13;;;;;;;;;;;10.80;67.80;;;;;;5073352;28;19989;-32
2023/04/10 06:35:39;;;;;;;;;;;10.80;67.70;;;;;;5073242;28;20385;-31
2023/04/10 06:38:04;;;;;;;;;;;10.90;67.60;;;;;;5073471;28;19935;-32
2023/04/10 06:40:32;;;;;;;;;;;10.90;67.60;;;;;;5073390;28;20375;-38
2023/04/10 06:42:58;;;;;;;;;;;10.90;67.50;;;;;;5073357;28;20283;-29
2023/04/10 06:45:24;;;;;;;;;;;11.00;67.50;;;;;;5073033;28;19912;-32
2023/04/10 06:47:50;;;;;;;;;;;11.00;67.60;;;;;;5073372;28;19919;-36
2023/04/10 06:50:15;;;;;;;;;;;11.10;69.00;;;;;;5073050;28;20446;-33
2023/04/10 06:52:41;;;;;;;;;;;11.10;69.10;;;;;;5072922;28;19963;-29
2023/04/10 06:55:06;;;;;;;;;;;11.10;69.50;;;;;;5072773;28;20003;-31
2023/04/10 06:57:32;;;;;;;;;;;11.10;69.70;;;;;;5073462;28;19912;-29
2023/04/10 06:59:57;;;;;;;;;;;11.20;72.00;;;;;;5073076;28;19913;-33
2023/04/10 07:02:23;;;;;;;;;;;11.30;73.90;;;;;;5072698;28;19912;-34
2023/04/10 07:04:49;;;;;;;;;;;11.30;74.30;;;;;;5072618;28;19934;-30
2023/04/10 07:07:14;;;;;;;;;;;11.30;74.40;;;;;;5072826;28;20325;-33
2023/04/10 07:09:40;;;;;;;;;;;11.30;73.80;;;;;;5072943;28;19916;-31
2023/04/10 07:12:06;;;;;;;;;;;11.40;74.10;;;;;;5072564;28;19952;-31
2023/04/10 07:14:33;;;;;;;;;;;11.40;74.80;;;;;;5072754;28;19955;-29
2023/04/10 07:16:58;;;;;;;;;;;11.40;76.20;;;;;;5072382;28;20013;-32
2023/04/10 07:19:24;;;;;;;;;;;11.50;75.80;;;;;;5072369;28;19917;-32
2023/04/10 07:21:50;;;;;;;;;;;11.60;75.10;;;;;;5072330;28;20384;-31
2023/04/10 07:24:16;;;;;;;;;;;11.60;75.30;;;;;;5072070;28;20049;-31
2023/04/10 07:26:42;;;;;;;;;;;11.70;74.60;;;;;;5072473;28;19936;-37
2023/04/10 07:29:08;;;;;;;;;;;11.80;73.70;;;;;;5072272;28;19919;-31
2023/04/10 07:31:33;;;;;;;;;;;11.90;74.50;;;;;;5072203;28;19912;-35
2023/04/10 07:33:59;;;;;;;;;;;12.00;73.70;;;;;;5072380;28;19997;-33
2023/04/10 07:36:25;;;;;;;;;;;12.00;73.20;;;;;;5072113;28;20216;-32
2023/04/10 07:38:51;;;;;;;;;;;12.00;73.20;;;;;;5072528;28;19924;-32
2023/04/10 07:41:17;;;;;;;;;;;12.10;74.10;;;;;;5072005;28;20281;-31
2023/04/10 07:43:42;;;;;;;;;;;12.10;74.70;;;;;;5072564;28;19913;-34
2023/04/10 07:46:08;;;;;;;;;;;12.20;74.50;;;;;;5071947;28;20458;-33
2023/04/10 07:48:33;;;;;;;;;;;12.20;74.00;;;;;;5072238;28;19920;-31
2023/04/10 07:50:59;;;;;;;;;;;12.30;73.80;;;;;;5072285;28;19992;-30
2023/04/10 07:53:25;;;;;;;;;;;12.40;74.30;;;;;;5072287;28;19912;-30
2023/04/10 07:55:52;;;;;;;;;;;12.40;73.60;;;;;;5072077;28;19963;-30
2023/04/10 07:58:17;;;;;;;;;;;12.50;73.70;;;;;;5072245;28;20377;-34
2023/04/10 08:00:43;;;;;;;;;;;12.50;73.50;;;;;;5071944;28;20227;-45
2023/04/10 08:03:10;;;;;;;;;;;12.60;74.30;;;;;;5070448;28;20011;-31
2023/04/10 08:05:35;;;;;;;;;;;12.60;74.10;;;;;;5072257;28;20355;-30
2023/04/10 08:08:01;;;;;;;;;;;12.60;74.60;;;;;;5071868;28;19961;-32
2023/04/10 08:10:26;;;;;;;;;;;12.60;73.90;;;;;;5071968;28;19919;-33
2023/04/10 08:12:52;;;;;;;;;;;12.70;73.20;;;;;;5071828;28;19912;-32
2023/04/10 08:15:17;;;;;;;;;;;12.80;72.00;;;;;;5071660;28;20401;-32
2023/04/10 08:17:43;;;;;;;;;;;12.80;71.70;;;;;;5070420;28;19912;-36
2023/04/10 08:20:09;;;;;;;;;;;12.90;72.30;;;;;;5071659;28;19913;-30
2023/04/10 08:22:34;;;;;;;;;;;13.00;71.20;;;;;;5071800;28;20023;-33
2023/04/10 08:25:00;;;;;;;;;;;13.10;70.20;;;;;;5071388;28;19952;-30
2023/04/10 08:27:27;;;;;;;;;;;13.30;72.30;;;;;;5071436;28;19920;-33
2023/04/10 08:29:52;;;;;;;;;;;13.40;71.10;;;;;;5071849;28;20386;-29
2023/04/10 08:32:18;;;;;;;;;;;13.50;72.10;;;;;;5071510;28;20011;-30
2023/04/10 08:34:43;;;;;;;;;;;13.60;72.50;;;;;;5074472;28;19916;-34
2023/04/10 08:37:11;;;;;;;;;;;13.60;70.90;;;;;;5075904;28;19912;-36
2023/04/10 08:39:37;;;;;;;;;;;13.70;70.30;;;;;;5075632;28;20007;-32
2023/04/10 08:42:02;;;;;;;;;;;13.70;71.00;;;;;;5075663;28;20328;-35
2023/04/10 08:44:28;;;;;;;;;;;13.70;72.70;;;;;;5075674;28;19919;-38
2023/04/10 08:46:57;;;;;;;;;;;13.80;72.50;;;;;;5075871;28;20020;-30
2023/04/10 08:49:27;;;;;;;;;;;13.90;72.10;;;;;;5075318;28;19974;-32
2023/04/10 08:51:56;;;;;;;;;;;13.90;72.10;;;;;;5075321;28;19916;-34
2023/04/10 08:54:27;;;;;;;;;;;14.00;72.90;;;;;;5075455;28;20009;-32
2023/04/10 08:56:53;;;;;;;;;;;14.00;72.40;;;;;;5075298;28;19913;-33
2023/04/10 08:59:18;;;;;;;;;;;14.10;71.70;;;;;;5074995;28;20368;-31
2023/04/10 09:01:45;;;;;;;;;;;14.20;72.40;;;;;;5075246;28;19962;-34
2023/04/10 09:04:11;;;;;;;;;;;14.30;71.20;;;;;;5075151;28;19916;-30
2023/04/10 09:06:36;;;;;;;;;;;14.40;71.10;;;;;;5075135;28;19912;-33
2023/04/10 09:09:02;;;;;;;;;;;14.50;70.00;;;;;;5075090;28;19912;-31
2023/04/10 09:12:00;;;;;;;;;;;14.60;70.40;;;;;;5075433;28;19916;-33
2023/04/10 09:14:29;;;;;;;;;;;14.70;70.20;;;;;;5073471;28;20007;-31
2023/04/10 09:17:15;;;;;;;;;;;14.80;71.10;;;;;;5075237;28;19969;-30
2023/04/10 09:19:41;;;;;;;;;;;14.80;70.00;;;;;;5074053;28;19955;-32
2023/04/10 09:22:07;;;;;;;;;;;14.90;69.30;;;;;;5074884;28;19951;-31
2023/04/10 09:24:40;;;;;;;;;;;14.80;68.70;;;;;;5073839;28;19962;-32
2023/04/10 09:27:05;;;;;;;;;;;14.90;68.30;;;;;;5074599;28;19974;-38
2023/04/10 09:29:47;;;;;;;;;;;15.00;67.30;;;;;;5074591;28;19921;-29
2023/04/10 09:32:12;;;;;;;;;;;15.00;67.10;;;;;;5073522;28;19912;-30
2023/04/10 09:34:51;;;;;;;;;;;15.00;68.00;;;;;;5074442;28;19916;-33
2023/04/10 09:37:19;;;;;;;;;;;15.10;69.60;;;;;;5074562;28;20326;-39
2023/04/10 09:39:45;;;;;;;;;;;15.10;69.90;;;;;;5074437;28;19963;-31
2023/04/10 09:42:11;;;;;;;;;;;15.20;69.70;;;;;;5073355;28;19916;-38
2023/04/10 09:44:37;;;;;;;;;;;15.20;68.90;;;;;;5074380;28;19913;-33
2023/04/10 09:47:12;;;;;;;;;;;15.20;69.40;;;;;;5073938;28;20288;-32
2023/04/10 09:49:45;;;;;;;;;;;15.20;69.70;;;;;;5074330;28;19913;-43
2023/04/10 09:52:37;;;;;;;;;;;15.20;68.80;;;;;;5074358;28;19916;-34
2023/04/10 09:55:04;;;;;;;;;;;15.20;67.60;;;;;;5073951;28;19990;-31
2023/04/10 09:57:30;;;;;;;;;;;15.20;68.10;;;;;;5074002;28;20295;-31
2023/04/10 09:59:57;;;;;;;;;;;15.20;67.50;;;;;;5074126;28;19919;-34
2023/04/10 10:02:23;;;;;;;;;;;15.20;66.30;;;;;;5074718;28;19912;-33
2023/04/10 10:04:49;;;;;;;;;;;15.20;67.30;;;;;;5074076;28;20395;-34
2023/04/10 10:07:16;;;;;;;;;;;15.20;67.60;;;;;;5073990;28;19920;-31
2023/04/10 10:09:43;;;;;;;;;;;15.20;67.70;;;;;;5074145;28;19948;-36
2023/04/10 10:12:09;;;;;;;;;;;15.20;68.10;;;;;;5073912;28;19913;-35
2023/04/10 10:14:37;;;;;;;;;;;15.20;68.50;;;;;;5072567;28;19916;-35
2023/04/10 10:17:06;;;;;;;;;;;15.30;69.60;;;;;;5074067;28;20003;-34
2023/04/10 10:19:55;;;;;;;;;;;15.30;68.90;;;;;;5073617;28;19920;-30
2023/04/10 10:22:22;;;;;;;;;;;15.30;67.80;;;;;;5069417;28;19918;-33
2023/04/10 10:24:48;;;;;;;;;;;15.40;68.80;;;;;;5073714;28;19912;-34
2023/04/10 10:27:15;;;;;;;;;;;15.40;68.40;;;;;;5073411;28;19920;-32
2023/04/10 10:29:42;;;;;;;;;;;15.50;68.80;;;;;;5073935;28;20325;-33
2023/04/10 10:32:09;;;;;;;;;;;15.50;68.30;;;;;;5073557;28;20098;-32
2023/04/10 10:34:35;;;;;;;;;;;15.60;68.90;;;;;;5073556;28;20010;-33
2023/04/10 10:37:01;;;;;;;;;;;15.60;68.70;;;;;;5073645;28;20295;-33
2023/04/10 10:39:33;;;;;;;;;;;15.70;68.70;;;;;;5073660;28;19913;-33
2023/04/10 10:42:05;;;;;;;;;;;15.70;67.70;;;;;;5073301;28;20049;-31
2023/04/10 10:44:37;;;;;;;;;;;15.80;67.80;;;;;;5073272;28;19970;-31
2023/04/10 10:47:09;;;;;;;;;;;15.90;68.00;;;;;;5073262;28;19912;-33
2023/04/10 10:49:50;;;;;;;;;;;16.00;67.80;;;;;;5073393;28;19919;-32
2023/04/10 10:52:35;;;;;;;;;;;16.10;66.70;;;;;;5073249;28;19920;-31
2023/04/10 10:55:20;;;;;;;;;;;16.10;66.50;;;;;;5073050;28;19916;-32
2023/04/10 10:57:47;;;;;;;;;;;16.20;67.30;;;;;;5072343;28;20284;-35
2023/04/10 11:00:13;;;;;;;;;;;16.20;67.00;;;;;;5072839;28;19923;-30
2023/04/10 11:02:39;;;;;;;;;;;16.20;66.50;;;;;;5073043;28;19913;-30
2023/04/10 11:05:05;;;;;;;;;;;16.20;66.30;;;;;;5071443;28;19920;-31
2023/04/10 11:07:49;;;;;;;;;;;16.30;65.90;;;;;;5073082;28;19973;-30
2023/04/10 11:10:14;;;;;;;;;;;16.40;66.50;;;;;;5072576;28;19912;-30
2023/04/10 11:12:59;;;;;;;;;;;16.50;66.00;;;;;;5072933;28;20015;-29
2023/04/10 11:15:24;;;;;;;;;;;16.60;64.90;;;;;;5072829;28;19924;-32
2023/04/10 11:17:51;;;;;;;;;;;16.70;64.60;;;;;;5072676;28;19913;-35
2023/04/10 11:20:17;;;;;;;;;;;16.90;64.20;;;;;;5072902;28;20364;-32
2023/04/10 11:23:01;;;;;;;;;;;16.90;63.70;;;;;;5072593;28;19913;-30
2023/04/10 11:25:45;;;;;;;;;;;17.00;63.70;;;;;;5072572;28;20081;-29
2023/04/10 11:28:30;;;;;;;;;;;17.10;63.50;;;;;;5072326;28;19978;-32
2023/04/10 11:31:12;;;;;;;;;;;17.20;63.50;;;;;;5072466;28;20395;-35
2023/04/10 11:33:38;;;;;;;;;;;17.30;62.90;;;;;;5072529;28;19913;-33
2023/04/10 11:36:05;;;;;;;;;;;17.40;62.90;;;;;;5072299;28;20282;-36
2023/04/10 11:38:30;;;;;;;;;;;17.50;62.40;;;;;;5072373;28;19919;-33
2023/04/10 11:41:00;;;;;;;;;;;17.60;62.90;;;;;;5072377;28;20287;-33
2023/04/10 11:43:26;;;;;;;;;;;17.70;62.70;;;;;;5072276;28;19912;-32
2023/04/10 11:45:58;;;;;;;;;;;17.70;62.20;;;;;;5072279;28;19966;-32
2023/04/10 11:48:23;;;;;;;;;;;17.80;61.70;;;;;;5072231;28;20049;-39
2023/04/10 11:50:49;;;;;;;;;;;17.70;61.30;;;;;;5072202;28;19916;-36
2023/04/10 11:53:18;;;;;;;;;;;17.70;61.40;;;;;;5072195;28;19923;-31
2023/04/10 11:55:45;;;;;;;;;;;17.80;60.50;;;;;;5072382;28;20364;-30
2023/04/10 11:58:24;;;;;;;;;;;17.80;60.70;;;;;;5072195;28;19920;-32
2023/04/10 12:01:00;;;;;;;;;;;17.80;60.00;;;;;;5072093;28;19918;-32
2023/04/10 12:03:38;;;;;;;;;;;17.80;60.70;;;;;;5072087;28;19920;-30
2023/04/10 12:06:05;;;;;;;;;;;17.90;60.30;;;;;;5072156;28;19913;-36
2023/04/10 12:08:32;;;;;;;;;;;18.00;59.90;;;;;;5071721;28;19931;-30
2023/04/10 12:10:58;;;;;;;;;;;18.10;60.10;;;;;;5072000;28;20316;-35
2023/04/10 12:13:24;;;;;;;;;;;18.10;59.70;;;;;;5072108;28;20268;-33
2023/04/10 12:15:50;;;;;;;;;;;18.20;59.20;;;;;;5072186;28;19917;-31
2023/04/10 12:18:16;;;;;;;;;;;18.20;59.30;;;;;;5072042;28;20428;-33
2023/04/10 12:20:43;;;;;;;;;;;18.30;58.80;;;;;;5071973;28;20308;-36
2023/04/10 12:23:08;;;;;;;;;;;18.20;58.80;;;;;;5071963;28;19912;-33
2023/04/10 12:25:34;;;;;;;;;;;18.30;58.10;;;;;;5071943;28;19919;-35
2023/04/10 12:27:59;;;;;;;;;;;18.30;58.00;;;;;;5071511;28;19975;-38
2023/04/10 12:30:25;;;;;;;;;;;18.30;58.50;;;;;;5072058;28;20292;-36
2023/04/10 12:32:54;;;;;;;;;;;18.40;58.20;;;;;;5071680;28;19917;-38
2023/04/10 12:35:19;;;;;;;;;;;18.40;58.60;;;;;;5071524;28;19926;-34
2023/04/10 12:37:48;;;;;;;;;;;18.50;58.40;;;;;;5071456;28;19913;-35
2023/04/10 12:40:14;;;;;;;;;;;18.50;58.30;;;;;;5071721;28;19919;-43
2023/04/10 12:42:40;;;;;;;;;;;18.50;57.40;;;;;;5071739;28;19994;-34
2023/04/10 12:45:08;;;;;;;;;;;18.50;57.50;;;;;;5071629;28;19967;-34
2023/04/10 12:47:47;;;;;;;;;;;18.60;57.40;;;;;;5070266;28;19912;-34
2023/04/10 12:50:16;;;;;;;;;;;18.60;57.50;;;;;;5071511;28;19958;-34
2023/04/10 12:52:42;;;;;;;;;;;18.70;57.30;;;;;;5071509;28;19913;-34
2023/04/10 12:55:11;;;;;;;;;;;18.80;57.00;;;;;;5071330;28;19920;-32
2023/04/10 12:57:37;;;;;;;;;;;18.80;57.00;;;;;;5071475;28;19913;-35
2023/04/10 13:00:05;;;;;;;;;;;18.80;56.60;;;;;;5071689;28;19944;-37
2023/04/10 13:02:31;;;;;;;;;;;18.70;56.20;;;;;;5071336;28;19916;-35
2023/04/10 13:04:56;;;;;;;;;;;18.70;56.40;;;;;;5069915;28;20425;-34
2023/04/10 13:07:22;;;;;;;;;;;18.60;56.00;;;;;;5071468;28;19912;-33
2023/04/10 13:09:47;;;;;;;;;;;18.50;56.50;;;;;;5071285;28;19986;-34
2023/04/10 13:12:13;;;;;;;;;;;18.50;56.10;;;;;;5071316;28;19999;-33
2023/04/10 13:14:39;;;;;;;;;;;18.40;55.90;;;;;;5071645;28;19924;-34
2023/04/10 13:17:05;;;;;;;;;;;18.30;55.00;;;;;;5071687;28;19947;-37
2023/04/10 13:19:30;;;;;;;;;;;18.20;54.60;;;;;;5070093;28;19932;-37
2023/04/10 13:21:56;;;;;;;;;;;18.10;54.20;;;;;;5074233;28;19962;-34
2023/04/10 13:24:21;;;;;;;;;;;18.00;54.50;;;;;;5074864;28;19913;-30
2023/04/10 13:26:47;;;;;;;;;;;17.90;54.10;;;;;;5074727;28;19922;-35
2023/04/10 13:29:12;;;;;;;;;;;17.70;53.80;;;;;;5074739;28;19962;-39
2023/04/10 13:31:37;;;;;;;;;;;17.60;53.90;;;;;;5075023;28;19974;-37
2023/04/10 13:34:03;;;;;;;;;;;17.50;54.00;;;;;;5074715;28;19912;-36
2023/04/10 13:36:30;;;;;;;;;;;17.60;54.20;;;;;;5074951;28;19912;-32
2023/04/10 13:38:55;;;;;;;;;;;17.50;54.10;;;;;;5074934;28;20282;-38
2023/04/10 13:41:22;;;;;;;;;;;17.40;54.10;;;;;;5074590;28;20042;-32
2023/04/10 13:43:48;;;;;;;;;;;17.40;54.10;;;;;;5074816;28;19913;-33
2023/04/10 13:46:13;;;;;;;;;;;17.40;54.30;;;;;;5074398;28;19965;-32
2023/04/10 13:48:40;;;;;;;;;;;17.40;54.50;;;;;;5074508;28;20015;-36
2023/04/10 13:51:08;;;;;;;;;;;17.40;54.70;;;;;;5074205;28;19912;-35
2023/04/10 13:53:34;;;;;;;;;;;17.30;54.90;;;;;;5074499;28;19912;-35
2023/04/10 13:56:00;;;;;;;;;;;17.30;54.70;;;;;;5073996;28;20415;-36
2023/04/10 13:58:27;;;;;;;;;;;17.30;54.90;;;;;;5073920;28;19920;-32
2023/04/10 14:00:53;;;;;;;;;;;17.30;54.60;;;;;;5074279;28;20261;-34
2023/04/10 14:03:18;;;;;;;;;;;17.20;54.60;;;;;;5072813;28;19912;-34
2023/04/10 14:05:44;;;;;;;;;;;17.20;54.90;;;;;;5074027;28;19912;-34
2023/04/10 14:08:13;;;;;;;;;;;17.10;54.80;;;;;;5074268;28;19959;-38
2023/04/10 14:10:38;;;;;;;;;;;17.10;54.70;;;;;;5074241;28;19912;-36
2023/04/10 14:13:05;;;;;;;;;;;17.10;54.90;;;;;;5074122;28;19936;-34
2023/04/10 14:15:30;;;;;;;;;;;17.20;55.10;;;;;;5073690;28;19926;-34
2023/04/10 14:17:56;;;;;;;;;;;17.30;54.90;;;;;;5073821;28;19912;-31
2023/04/10 14:20:21;;;;;;;;;;;17.40;54.80;;;;;;5073552;28;20388;-36